Horizon 9 — 3EXF8 — position and weather

sailwx.info

Track history (hours):
 
Tides and Currents Weather Stations Pressure Air Temp Water Temp Dewpoint Dewpoint Depression Visibility Wind Speed Wind Dir Waves Ship Positions

Horizon 9

Last reported at 2017-Sep-27 10:00 UTC. Time now 2017-Oct-19 16:17 UTC.
Position N 23°07' E 117°19'.
Warning: this ship's position is 22 days out of date.

Length 120 m; draft 8.9 m.

Type: Cargo ship. MMSI: 374346000.

Date/timePositionNaut miles runAvg speedWind from/ knotsBaromVisibWave heightAir tempDewpointWater temp
2017-Sep-27 10:00N 23°07' E 117°19'510.5
2017-Sep-27 09:29N 23°12' E 117°21'11 9.7
2017-Sep-27 08:21N 23°20' E 117°30'15 9.6
2017-Sep-27 06:50N 23°30' E 117°42'22 9.4
2017-Sep-27 04:29N 23°44' E 117°60'23 9.8
2017-Sep-27 02:09N 24°01' E 118°16'210.3
2017-Sep-27 01:56N 24°03' E 118°18'5 9.8
2017-Sep-27 01:25N 24°06' E 118°23'5010.3
2017-Sep-26 20:30N 24°37' E 119°06'  
2017-Sep-22 01:55N 34°38' E 135°24'0 0.0
2017-Sep-22 01:19N 34°38' E 135°24'0 0.0
2017-Sep-22 00:55N 34°38' E 135°24'0 0.0
2017-Sep-22 00:25N 34°38' E 135°24'0 0.0
2017-Sep-21 23:55N 34°38' E 135°24'0 0.0
2017-Sep-21 23:25N 34°38' E 135°24'0 0.0
2017-Sep-21 22:55N 34°38' E 135°24'0 0.0
2017-Sep-21 22:25N 34°38' E 135°24'0 0.0
2017-Sep-21 21:55N 34°38' E 135°24'0 0.0
2017-Sep-21 21:19N 34°38' E 135°24'0 0.0
2017-Sep-21 20:49N 34°38' E 135°24'0 0.0
2017-Sep-21 20:25N 34°38' E 135°24'0 0.0
2017-Sep-21 19:55N 34°38' E 135°24'0 0.0
2017-Sep-21 19:25N 34°38' E 135°24'0 0.0
2017-Sep-21 18:55N 34°38' E 135°24'0 0.0
2017-Sep-21 18:19N 34°38' E 135°24'0 0.0
2017-Sep-21 17:49N 34°38' E 135°24'0 0.0
2017-Sep-21 17:25N 34°38' E 135°24'0 0.0
2017-Sep-21 17:01N 34°38' E 135°24'0 0.0
2017-Sep-21 16:31N 34°38' E 135°24'0 0.0
2017-Sep-21 16:00N 34°38' E 135°24'0 0.0
2017-Sep-21 15:30N 34°38' E 135°24'0 0.0
2017-Sep-21 15:00N 34°38' E 135°24'0 0.0
2017-Sep-21 14:30N 34°38' E 135°24'0 0.0
2017-Sep-21 14:00N 34°38' E 135°24'0 0.0
2017-Sep-21 13:30N 34°38' E 135°24'0 0.0
2017-Sep-21 13:00N 34°38' E 135°24'0 0.0
2017-Sep-21 12:30N 34°38' E 135°24'0 0.0
2017-Sep-21 11:54N 34°38' E 135°24'0 0.0
2017-Sep-21 11:18N 34°38' E 135°24'0 0.0
2017-Sep-21 10:42N 34°38' E 135°24'0 0.0
2017-Sep-21 10:30N 34°38' E 135°24'0 0.0
2017-Sep-21 10:00N 34°38' E 135°24'0 0.0
2017-Sep-21 09:30N 34°38' E 135°24'0 0.0
2017-Sep-21 09:00N 34°38' E 135°24'0 0.0
2017-Sep-21 08:30N 34°38' E 135°24'0 0.0
2017-Sep-21 08:00N 34°38' E 135°24'0 0.0
2017-Sep-21 07:30N 34°38' E 135°24'0 0.0
2017-Sep-21 06:48N 34°38' E 135°24'0 0.0
2017-Sep-21 06:30N 34°38' E 135°24'0 0.0
2017-Sep-21 05:54N 34°38' E 135°24'0 0.0
2017-Sep-21 05:30N 34°38' E 135°24'0 0.0
2017-Sep-21 05:00N 34°38' E 135°24'0 0.0
2017-Sep-21 04:24N 34°38' E 135°24'0 0.0
2017-Sep-21 04:00N 34°38' E 135°24'0 0.0
2017-Sep-21 03:12N 34°38' E 135°24'0 0.0
2017-Sep-21 02:48N 34°38' E 135°24'0 0.0
2017-Sep-21 02:30N 34°38' E 135°24'0 0.0
2017-Sep-21 02:00N 34°38' E 135°24'0 0.0
2017-Sep-21 01:30N 34°38' E 135°24'0 0.0
2017-Sep-21 01:00N 34°38' E 135°24'0 0.0
2017-Sep-21 00:30N 34°38' E 135°24'0 0.0
2017-Sep-20 23:54N 34°38' E 135°24'0 0.0
2017-Sep-20 23:24N 34°38' E 135°24'0 0.0
2017-Sep-20 23:00N 34°38' E 135°24'0 0.0
2017-Sep-20 22:24N 34°38' E 135°24'0 0.0
2017-Sep-20 22:00N 34°38' E 135°24'0 0.0
2017-Sep-20 20:30N 34°38' E 135°24'0 0.0
2017-Sep-20 19:54N 34°38' E 135°24'0 0.0
2017-Sep-20 19:30N 34°38' E 135°24'0 0.0
2017-Sep-20 19:00N 34°38' E 135°24'0 0.0
2017-Sep-20 18:30N 34°38' E 135°24'0 0.0
2017-Sep-20 17:48N 34°38' E 135°24'0 0.0
2017-Sep-20 17:24N 34°38' E 135°24'0 0.0
2017-Sep-20 17:00N 34°38' E 135°24'0 0.0
2017-Sep-20 16:24N 34°38' E 135°24'0 0.0
2017-Sep-20 16:00N 34°38' E 135°24'0 0.0
2017-Sep-20 15:24N 34°38' E 135°24'0 0.0
2017-Sep-20 15:00N 34°38' E 135°24'0 0.0
2017-Sep-20 14:00N 34°38' E 135°24'0 0.0
2017-Sep-20 13:30N 34°38' E 135°24'0 0.0
2017-Sep-20 13:00N 34°38' E 135°24'0 0.0
2017-Sep-20 12:30N 34°38' E 135°24'0 0.0
2017-Sep-20 12:00N 34°38' E 135°24'0 0.0
2017-Sep-20 11:30N 34°38' E 135°24'0 0.0
2017-Sep-20 11:00N 34°38' E 135°24'0 0.0
2017-Sep-20 10:18N 34°38' E 135°24'0 0.0
2017-Sep-20 10:00N 34°38' E 135°24'0 0.0
2017-Sep-20 09:30N 34°38' E 135°24'0 0.0
2017-Sep-20 09:00N 34°38' E 135°24'0 0.0
2017-Sep-20 08:30N 34°38' E 135°24'0 0.0
2017-Sep-20 07:54N 34°38' E 135°24'0 0.0
2017-Sep-20 07:30N 34°38' E 135°24'0 0.0
2017-Sep-20 07:00N 34°38' E 135°24'0 0.0
2017-Sep-20 06:24N 34°38' E 135°24'0 0.0
2017-Sep-20 06:00N 34°38' E 135°24'0 0.0
2017-Sep-20 05:30N 34°38' E 135°24'0 0.0
2017-Sep-20 05:00N 34°38' E 135°24'0 0.0
2017-Sep-20 04:24N 34°38' E 135°24'0 0.0
2017-Sep-20 04:00N 34°38' E 135°24'0 0.0
2017-Sep-20 03:30N 34°38' E 135°24'0 0.0
2017-Sep-20 03:00N 34°38' E 135°24'0 0.0
2017-Sep-20 02:30N 34°38' E 135°24'0 0.0
2017-Sep-20 01:59N 34°38' E 135°24'0 0.0
2017-Sep-20 01:23N 34°38' E 135°24'0 0.0
2017-Sep-20 00:59N 34°38' E 135°24'0 0.0
2017-Sep-20 00:23N 34°38' E 135°24'0 0.0
2017-Sep-19 23:59N 34°38' E 135°24'0 0.0
2017-Sep-19 23:29N 34°38' E 135°24'0 0.0
2017-Sep-19 22:59N 34°38' E 135°24'0 0.0
2017-Sep-19 22:17N 34°38' E 135°24'0 0.0
2017-Sep-19 21:59N 34°38' E 135°24'0 0.0
2017-Sep-19 21:29N 34°38' E 135°24'0 0.0
2017-Sep-19 20:59N 34°38' E 135°24'0 0.0
2017-Sep-19 20:23N 34°38' E 135°24'0 0.0
2017-Sep-19 19:59N 34°38' E 135°24'0 0.0
2017-Sep-19 19:29N 34°38' E 135°24'0 0.0
2017-Sep-19 18:59N 34°38' E 135°24'0 0.0
2017-Sep-19 18:23N 34°38' E 135°24'0 0.0
2017-Sep-19 17:59N 34°38' E 135°24'0 0.0
2017-Sep-19 17:29N 34°38' E 135°24'0 0.0
2017-Sep-19 16:53N 34°38' E 135°24'0 0.0
2017-Sep-19 16:29N 34°38' E 135°24'0 0.0
2017-Sep-19 15:53N 34°38' E 135°24'0 0.0
2017-Sep-19 15:29N 34°38' E 135°24'0 0.0
2017-Sep-19 14:59N 34°38' E 135°24'0 0.0
2017-Sep-19 14:23N 34°38' E 135°24'0 0.0
2017-Sep-19 13:59N 34°38' E 135°24'0 0.0
2017-Sep-19 13:29N 34°38' E 135°24'0 0.0
2017-Sep-19 12:59N 34°38' E 135°24'0 0.0
2017-Sep-19 12:29N 34°38' E 135°24'0 0.0
2017-Sep-19 11:53N 34°38' E 135°24'0 0.0
2017-Sep-19 11:29N 34°38' E 135°24'0 0.0
2017-Sep-19 10:59N 34°38' E 135°24'0 0.0
2017-Sep-19 10:29N 34°38' E 135°24'0 0.0
2017-Sep-19 09:29N 34°38' E 135°24'0 0.0
2017-Sep-19 08:53N 34°38' E 135°24'0 0.0
2017-Sep-19 08:29N 34°38' E 135°24'0 0.0
2017-Sep-19 07:59N 34°38' E 135°24'0 0.0
2017-Sep-19 07:29N 34°38' E 135°24'0 0.0
2017-Sep-19 06:59N 34°38' E 135°24'0 0.0
2017-Sep-19 06:29N 34°38' E 135°24'0 0.0
2017-Sep-19 05:59N 34°38' E 135°24'0 0.0
2017-Sep-19 05:29N 34°38' E 135°24'0 0.0
2017-Sep-19 04:59N 34°38' E 135°24'0 0.0
2017-Sep-19 04:29N 34°38' E 135°24'0 0.0
2017-Sep-19 03:59N 34°38' E 135°24'0 0.0
2017-Sep-19 03:23N 34°38' E 135°24'0 0.0
2017-Sep-19 02:59N 34°38' E 135°24'0 0.0
2017-Sep-19 02:29N 34°38' E 135°24'0 0.0
2017-Sep-19 01:53N 34°38' E 135°24'0 0.0
2017-Sep-19 01:29N 34°38' E 135°24'0 0.0
2017-Sep-19 00:53N 34°38' E 135°24'0 0.0
2017-Sep-19 00:29N 34°38' E 135°24'0 0.0
2017-Sep-18 23:59N 34°38' E 135°24'0 0.0
2017-Sep-18 23:23N 34°38' E 135°24'0 0.0
2017-Sep-18 22:59N 34°38' E 135°24'0 0.0
2017-Sep-18 22:23N 34°38' E 135°24'0 0.2
2017-Sep-18 22:00N 34°38' E 135°24'1 1.3
2017-Sep-18 21:30N 34°38' E 135°23'1 1.7
2017-Sep-18 20:59N 34°37' E 135°23'0 0.1
2017-Sep-18 20:26N 34°37' E 135°23'0 0.1
2017-Sep-18 19:56N 34°37' E 135°23'0 0.0
2017-Sep-18 19:14N 34°37' E 135°23'0 0.0
2017-Sep-18 18:56N 34°37' E 135°23'0 0.0
2017-Sep-18 18:26N 34°37' E 135°23'0 0.0
2017-Sep-18 17:56N 34°37' E 135°23'0 0.0
2017-Sep-18 17:26N 34°37' E 135°23'0 0.0
2017-Sep-18 16:56N 34°37' E 135°23'0 0.0
2017-Sep-18 16:26N 34°37' E 135°23'0 0.0
2017-Sep-18 15:56N 34°37' E 135°23'0 0.0
2017-Sep-18 15:26N 34°37' E 135°23'0 0.0
2017-Sep-18 14:56N 34°37' E 135°23'0 0.0
2017-Sep-18 14:26N 34°37' E 135°23'0 0.0
2017-Sep-18 13:56N 34°37' E 135°23'0 0.0
2017-Sep-18 13:26N 34°37' E 135°23'0 0.0
2017-Sep-18 12:50N 34°37' E 135°23'0 0.0
2017-Sep-18 12:20N 34°37' E 135°23'0 0.0
2017-Sep-18 11:56N 34°37' E 135°23'0 0.0
2017-Sep-18 11:20N 34°37' E 135°23'0 0.2
2017-Sep-18 10:50N 34°37' E 135°23'0 0.2
2017-Sep-18 10:20N 34°37' E 135°23'0 0.0
2017-Sep-18 09:56N 34°37' E 135°23'0 0.1
2017-Sep-18 09:26N 34°37' E 135°23'0 0.1
2017-Sep-18 08:56N 34°37' E 135°23'0 0.0
2017-Sep-18 08:20N 34°37' E 135°23'0 0.0
2017-Sep-18 07:56N 34°37' E 135°23'0 0.1
2017-Sep-18 07:26N 34°37' E 135°23'0 0.0
2017-Sep-18 06:44N 34°37' E 135°23'0 0.0
2017-Sep-18 06:20N 34°37' E 135°23'0 0.0
2017-Sep-18 05:50N 34°37' E 135°23'0 0.0
2017-Sep-18 05:20N 34°37' E 135°23'0 0.0
2017-Sep-18 04:08N 34°37' E 135°23'0 0.0
2017-Sep-18 03:44N 34°37' E 135°23'0 0.0
2017-Sep-18 03:26N 34°37' E 135°23'0 0.0
2017-Sep-18 02:56N 34°37' E 135°23'0 0.1
2017-Sep-18 02:02N 34°37' E 135°23'0 0.5
2017-Sep-18 01:59N 34°37' E 135°23'1 1.2
2017-Sep-18 01:30N 34°37' E 135°22'5 9.1
2017-Sep-18 01:00N 34°34' E 135°18'2 3.4
2017-Sep-18 00:28N 34°33' E 135°16'0 0.0
2017-Sep-17 23:58N 34°33' E 135°16'0 0.0
2017-Sep-17 23:28N 34°33' E 135°16'0 0.0
2017-Sep-17 22:58N 34°33' E 135°16'0 0.0
2017-Sep-17 22:28N 34°33' E 135°16'0 0.0
2017-Sep-17 21:58N 34°33' E 135°16'0 0.0
2017-Sep-17 21:28N 34°33' E 135°16'0 0.0
2017-Sep-17 20:58N 34°33' E 135°16'0 0.0
2017-Sep-17 20:28N 34°33' E 135°16'0 0.0
2017-Sep-17 20:00N 34°33' E 135°16'0 0.0
2017-Sep-17 19:28N 34°33' E 135°16'0 0.0
2017-Sep-17 18:59N 34°33' E 135°16'0 0.0
2017-Sep-17 18:28N 34°33' E 135°16'0 0.0
2017-Sep-17 17:58N 34°33' E 135°16'0 0.0
2017-Sep-17 17:22N 34°33' E 135°16'0 0.0
2017-Sep-17 16:58N 34°33' E 135°16'0 0.0
2017-Sep-17 16:28N 34°33' E 135°16'0 0.0
2017-Sep-17 15:58N 34°33' E 135°16'0 0.0
2017-Sep-17 15:28N 34°33' E 135°16'0 0.0
2017-Sep-17 15:00N 34°33' E 135°16'0 0.0
2017-Sep-17 14:16N 34°33' E 135°16'0 0.1
2017-Sep-17 14:00N 34°33' E 135°16'0 0.1
2017-Sep-17 13:22N 34°33' E 135°16'0 0.1
2017-Sep-17 12:58N 34°33' E 135°16'0 0.1
2017-Sep-17 12:28N 34°33' E 135°16'0 0.2
2017-Sep-17 11:58N 34°33' E 135°16'0 0.1
2017-Sep-17 11:28N 34°33' E 135°16'0 0.0
2017-Sep-17 10:58N 34°33' E 135°16'0 0.0
2017-Sep-17 10:28N 34°33' E 135°16'  
Track history (hours):
 
Tides and Currents Weather Stations Pressure Air Temp Water Temp Dewpoint Dewpoint Depression Visibility Wind Speed Wind Dir Waves Ship Positions

Horizon 9

Last reported at 2017-Sep-27 10:00 UTC. Time now 2017-Oct-19 16:17 UTC.
Position N 23°07' E 117°19'.
Warning: this ship's position is 22 days out of date.

Length 120 m; draft 8.9 m.

Type: Cargo ship. MMSI: 374346000.

Date/timePositionNaut miles runAvg speedWind from/ knotsBaromVisibWave heightAir tempDewpointWater temp
2017-Sep-27 10:00N 23°07' E 117°19'510.5
2017-Sep-27 09:29N 23°12' E 117°21'11 9.7
2017-Sep-27 08:21N 23°20' E 117°30'15 9.6
2017-Sep-27 06:50N 23°30' E 117°42'22 9.4
2017-Sep-27 04:29N 23°44' E 117°60'23 9.8
2017-Sep-27 02:09N 24°01' E 118°16'210.3
2017-Sep-27 01:56N 24°03' E 118°18'5 9.8
2017-Sep-27 01:25N 24°06' E 118°23'5010.3
2017-Sep-26 20:30N 24°37' E 119°06'  
2017-Sep-22 01:55N 34°38' E 135°24'0 0.0
2017-Sep-22 01:19N 34°38' E 135°24'0 0.0
2017-Sep-22 00:55N 34°38' E 135°24'0 0.0
2017-Sep-22 00:25N 34°38' E 135°24'0 0.0
2017-Sep-21 23:55N 34°38' E 135°24'0 0.0
2017-Sep-21 23:25N 34°38' E 135°24'0 0.0
2017-Sep-21 22:55N 34°38' E 135°24'0 0.0
2017-Sep-21 22:25N 34°38' E 135°24'0 0.0
2017-Sep-21 21:55N 34°38' E 135°24'0 0.0
2017-Sep-21 21:19N 34°38' E 135°24'0 0.0
2017-Sep-21 20:49N 34°38' E 135°24'0 0.0
2017-Sep-21 20:25N 34°38' E 135°24'0 0.0
2017-Sep-21 19:55N 34°38' E 135°24'0 0.0
2017-Sep-21 19:25N 34°38' E 135°24'0 0.0
2017-Sep-21 18:55N 34°38' E 135°24'0 0.0
2017-Sep-21 18:19N 34°38' E 135°24'0 0.0
2017-Sep-21 17:49N 34°38' E 135°24'0 0.0
2017-Sep-21 17:25N 34°38' E 135°24'0 0.0
2017-Sep-21 17:01N 34°38' E 135°24'0 0.0
2017-Sep-21 16:31N 34°38' E 135°24'0 0.0
2017-Sep-21 16:00N 34°38' E 135°24'0 0.0
2017-Sep-21 15:30N 34°38' E 135°24'0 0.0
2017-Sep-21 15:00N 34°38' E 135°24'0 0.0
2017-Sep-21 14:30N 34°38' E 135°24'0 0.0
2017-Sep-21 14:00N 34°38' E 135°24'0 0.0
2017-Sep-21 13:30N 34°38' E 135°24'0 0.0
2017-Sep-21 13:00N 34°38' E 135°24'0 0.0
2017-Sep-21 12:30N 34°38' E 135°24'0 0.0
2017-Sep-21 11:54N 34°38' E 135°24'0 0.0
2017-Sep-21 11:18N 34°38' E 135°24'0 0.0
2017-Sep-21 10:42N 34°38' E 135°24'0 0.0
2017-Sep-21 10:30N 34°38' E 135°24'0 0.0
2017-Sep-21 10:00N 34°38' E 135°24'0 0.0
2017-Sep-21 09:30N 34°38' E 135°24'0 0.0
2017-Sep-21 09:00N 34°38' E 135°24'0 0.0
2017-Sep-21 08:30N 34°38' E 135°24'0 0.0
2017-Sep-21 08:00N 34°38' E 135°24'0 0.0
2017-Sep-21 07:30N 34°38' E 135°24'0 0.0
2017-Sep-21 06:48N 34°38' E 135°24'0 0.0
2017-Sep-21 06:30N 34°38' E 135°24'0 0.0
2017-Sep-21 05:54N 34°38' E 135°24'0 0.0
2017-Sep-21 05:30N 34°38' E 135°24'0 0.0
2017-Sep-21 05:00N 34°38' E 135°24'0 0.0
2017-Sep-21 04:24N 34°38' E 135°24'0 0.0
2017-Sep-21 04:00N 34°38' E 135°24'0 0.0
2017-Sep-21 03:12N 34°38' E 135°24'0 0.0
2017-Sep-21 02:48N 34°38' E 135°24'0 0.0
2017-Sep-21 02:30N 34°38' E 135°24'0 0.0
2017-Sep-21 02:00N 34°38' E 135°24'0 0.0
2017-Sep-21 01:30N 34°38' E 135°24'0 0.0
2017-Sep-21 01:00N 34°38' E 135°24'0 0.0
2017-Sep-21 00:30N 34°38' E 135°24'0 0.0
2017-Sep-20 23:54N 34°38' E 135°24'0 0.0
2017-Sep-20 23:24N 34°38' E 135°24'0 0.0
2017-Sep-20 23:00N 34°38' E 135°24'0 0.0
2017-Sep-20 22:24N 34°38' E 135°24'0 0.0
2017-Sep-20 22:00N 34°38' E 135°24'0 0.0
2017-Sep-20 20:30N 34°38' E 135°24'0 0.0
2017-Sep-20 19:54N 34°38' E 135°24'0 0.0
2017-Sep-20 19:30N 34°38' E 135°24'0 0.0
2017-Sep-20 19:00N 34°38' E 135°24'0 0.0
2017-Sep-20 18:30N 34°38' E 135°24'0 0.0
2017-Sep-20 17:48N 34°38' E 135°24'0 0.0
2017-Sep-20 17:24N 34°38' E 135°24'0 0.0
2017-Sep-20 17:00N 34°38' E 135°24'0 0.0
2017-Sep-20 16:24N 34°38' E 135°24'0 0.0
2017-Sep-20 16:00N 34°38' E 135°24'0 0.0
2017-Sep-20 15:24N 34°38' E 135°24'0 0.0
2017-Sep-20 15:00N 34°38' E 135°24'0 0.0
2017-Sep-20 14:00N 34°38' E 135°24'0 0.0
2017-Sep-20 13:30N 34°38' E 135°24'0 0.0
2017-Sep-20 13:00N 34°38' E 135°24'0 0.0
2017-Sep-20 12:30N 34°38' E 135°24'0 0.0
2017-Sep-20 12:00N 34°38' E 135°24'0 0.0
2017-Sep-20 11:30N 34°38' E 135°24'0 0.0
2017-Sep-20 11:00N 34°38' E 135°24'0 0.0
2017-Sep-20 10:18N 34°38' E 135°24'0 0.0
2017-Sep-20 10:00N 34°38' E 135°24'0 0.0
2017-Sep-20 09:30N 34°38' E 135°24'0 0.0
2017-Sep-20 09:00N 34°38' E 135°24'0 0.0
2017-Sep-20 08:30N 34°38' E 135°24'0 0.0
2017-Sep-20 07:54N 34°38' E 135°24'0 0.0
2017-Sep-20 07:30N 34°38' E 135°24'0 0.0
2017-Sep-20 07:00N 34°38' E 135°24'0 0.0
2017-Sep-20 06:24N 34°38' E 135°24'0 0.0
2017-Sep-20 06:00N 34°38' E 135°24'0 0.0
2017-Sep-20 05:30N 34°38' E 135°24'0 0.0
2017-Sep-20 05:00N 34°38' E 135°24'0 0.0
2017-Sep-20 04:24N 34°38' E 135°24'0 0.0
2017-Sep-20 04:00N 34°38' E 135°24'0 0.0
2017-Sep-20 03:30N 34°38' E 135°24'0 0.0
2017-Sep-20 03:00N 34°38' E 135°24'0 0.0
2017-Sep-20 02:30N 34°38' E 135°24'0 0.0
2017-Sep-20 01:59N 34°38' E 135°24'0 0.0
2017-Sep-20 01:23N 34°38' E 135°24'0 0.0
2017-Sep-20 00:59N 34°38' E 135°24'0 0.0
2017-Sep-20 00:23N 34°38' E 135°24'0 0.0
2017-Sep-19 23:59N 34°38' E 135°24'0 0.0
2017-Sep-19 23:29N 34°38' E 135°24'0 0.0
2017-Sep-19 22:59N 34°38' E 135°24'0 0.0
2017-Sep-19 22:17N 34°38' E 135°24'0 0.0
2017-Sep-19 21:59N 34°38' E 135°24'0 0.0
2017-Sep-19 21:29N 34°38' E 135°24'0 0.0
2017-Sep-19 20:59N 34°38' E 135°24'0 0.0
2017-Sep-19 20:23N 34°38' E 135°24'0 0.0
2017-Sep-19 19:59N 34°38' E 135°24'0 0.0
2017-Sep-19 19:29N 34°38' E 135°24'0 0.0
2017-Sep-19 18:59N 34°38' E 135°24'0 0.0
2017-Sep-19 18:23N 34°38' E 135°24'0 0.0
2017-Sep-19 17:59N 34°38' E 135°24'0 0.0
2017-Sep-19 17:29N 34°38' E 135°24'0 0.0
2017-Sep-19 16:53N 34°38' E 135°24'0 0.0
2017-Sep-19 16:29N 34°38' E 135°24'0 0.0
2017-Sep-19 15:53N 34°38' E 135°24'0 0.0
2017-Sep-19 15:29N 34°38' E 135°24'0 0.0
2017-Sep-19 14:59N 34°38' E 135°24'0 0.0
2017-Sep-19 14:23N 34°38' E 135°24'0 0.0
2017-Sep-19 13:59N 34°38' E 135°24'0 0.0
2017-Sep-19 13:29N 34°38' E 135°24'0 0.0
2017-Sep-19 12:59N 34°38' E 135°24'0 0.0
2017-Sep-19 12:29N 34°38' E 135°24'0 0.0
2017-Sep-19 11:53N 34°38' E 135°24'0 0.0
2017-Sep-19 11:29N 34°38' E 135°24'0 0.0
2017-Sep-19 10:59N 34°38' E 135°24'0 0.0
2017-Sep-19 10:29N 34°38' E 135°24'0 0.0
2017-Sep-19 09:29N 34°38' E 135°24'0 0.0
2017-Sep-19 08:53N 34°38' E 135°24'0 0.0
2017-Sep-19 08:29N 34°38' E 135°24'0 0.0
2017-Sep-19 07:59N 34°38' E 135°24'0 0.0
2017-Sep-19 07:29N 34°38' E 135°24'0 0.0
2017-Sep-19 06:59N 34°38' E 135°24'0 0.0
2017-Sep-19 06:29N 34°38' E 135°24'0 0.0
2017-Sep-19 05:59N 34°38' E 135°24'0 0.0
2017-Sep-19 05:29N 34°38' E 135°24'0 0.0
2017-Sep-19 04:59N 34°38' E 135°24'0 0.0
2017-Sep-19 04:29N 34°38' E 135°24'0 0.0
2017-Sep-19 03:59N 34°38' E 135°24'0 0.0
2017-Sep-19 03:23N 34°38' E 135°24'0 0.0
2017-Sep-19 02:59N 34°38' E 135°24'0 0.0
2017-Sep-19 02:29N 34°38' E 135°24'0 0.0
2017-Sep-19 01:53N 34°38' E 135°24'0 0.0
2017-Sep-19 01:29N 34°38' E 135°24'0 0.0
2017-Sep-19 00:53N 34°38' E 135°24'0 0.0
2017-Sep-19 00:29N 34°38' E 135°24'0 0.0
2017-Sep-18 23:59N 34°38' E 135°24'0 0.0
2017-Sep-18 23:23N 34°38' E 135°24'0 0.0
2017-Sep-18 22:59N 34°38' E 135°24'0 0.0
2017-Sep-18 22:23N 34°38' E 135°24'0 0.2
2017-Sep-18 22:00N 34°38' E 135°24'1 1.3
2017-Sep-18 21:30N 34°38' E 135°23'1 1.7
2017-Sep-18 20:59N 34°37' E 135°23'0 0.1
2017-Sep-18 20:26N 34°37' E 135°23'0 0.1
2017-Sep-18 19:56N 34°37' E 135°23'0 0.0
2017-Sep-18 19:14N 34°37' E 135°23'0 0.0
2017-Sep-18 18:56N 34°37' E 135°23'0 0.0
2017-Sep-18 18:26N 34°37' E 135°23'0 0.0
2017-Sep-18 17:56N 34°37' E 135°23'0 0.0
2017-Sep-18 17:26N 34°37' E 135°23'0 0.0
2017-Sep-18 16:56N 34°37' E 135°23'0 0.0
2017-Sep-18 16:26N 34°37' E 135°23'0 0.0
2017-Sep-18 15:56N 34°37' E 135°23'0 0.0
2017-Sep-18 15:26N 34°37' E 135°23'0 0.0
2017-Sep-18 14:56N 34°37' E 135°23'0 0.0
2017-Sep-18 14:26N 34°37' E 135°23'0 0.0
2017-Sep-18 13:56N 34°37' E 135°23'0 0.0
2017-Sep-18 13:26N 34°37' E 135°23'0 0.0
2017-Sep-18 12:50N 34°37' E 135°23'0 0.0
2017-Sep-18 12:20N 34°37' E 135°23'0 0.0
2017-Sep-18 11:56N 34°37' E 135°23'0 0.0
2017-Sep-18 11:20N 34°37' E 135°23'0 0.2
2017-Sep-18 10:50N 34°37' E 135°23'0 0.2
2017-Sep-18 10:20N 34°37' E 135°23'0 0.0
2017-Sep-18 09:56N 34°37' E 135°23'0 0.1
2017-Sep-18 09:26N 34°37' E 135°23'0 0.1
2017-Sep-18 08:56N 34°37' E 135°23'0 0.0
2017-Sep-18 08:20N 34°37' E 135°23'0 0.0
2017-Sep-18 07:56N 34°37' E 135°23'0 0.1
2017-Sep-18 07:26N 34°37' E 135°23'0 0.0
2017-Sep-18 06:44N 34°37' E 135°23'0 0.0
2017-Sep-18 06:20N 34°37' E 135°23'0 0.0
2017-Sep-18 05:50N 34°37' E 135°23'0 0.0
2017-Sep-18 05:20N 34°37' E 135°23'0 0.0
2017-Sep-18 04:08N 34°37' E 135°23'0 0.0
2017-Sep-18 03:44N 34°37' E 135°23'0 0.0
2017-Sep-18 03:26N 34°37' E 135°23'0 0.0
2017-Sep-18 02:56N 34°37' E 135°23'0 0.1
2017-Sep-18 02:02N 34°37' E 135°23'0 0.5
2017-Sep-18 01:59N 34°37' E 135°23'1 1.2
2017-Sep-18 01:30N 34°37' E 135°22'5 9.1
2017-Sep-18 01:00N 34°34' E 135°18'2 3.4
2017-Sep-18 00:28N 34°33' E 135°16'0 0.0
2017-Sep-17 23:58N 34°33' E 135°16'0 0.0
2017-Sep-17 23:28N 34°33' E 135°16'0 0.0
2017-Sep-17 22:58N 34°33' E 135°16'0 0.0
2017-Sep-17 22:28N 34°33' E 135°16'0 0.0
2017-Sep-17 21:58N 34°33' E 135°16'0 0.0
2017-Sep-17 21:28N 34°33' E 135°16'0 0.0
2017-Sep-17 20:58N 34°33' E 135°16'0 0.0
2017-Sep-17 20:28N 34°33' E 135°16'0 0.0
2017-Sep-17 20:00N 34°33' E 135°16'0 0.0
2017-Sep-17 19:28N 34°33' E 135°16'0 0.0
2017-Sep-17 18:59N 34°33' E 135°16'0 0.0
2017-Sep-17 18:28N 34°33' E 135°16'0 0.0
2017-Sep-17 17:58N 34°33' E 135°16'0 0.0
2017-Sep-17 17:22N 34°33' E 135°16'0 0.0
2017-Sep-17 16:58N 34°33' E 135°16'0 0.0
2017-Sep-17 16:28N 34°33' E 135°16'0 0.0
2017-Sep-17 15:58N 34°33' E 135°16'0 0.0
2017-Sep-17 15:28N 34°33' E 135°16'0 0.0
2017-Sep-17 15:00N 34°33' E 135°16'0 0.0
2017-Sep-17 14:16N 34°33' E 135°16'0 0.1
2017-Sep-17 14:00N 34°33' E 135°16'0 0.1
2017-Sep-17 13:22N 34°33' E 135°16'0 0.1
2017-Sep-17 12:58N 34°33' E 135°16'0 0.1
2017-Sep-17 12:28N 34°33' E 135°16'0 0.2
2017-Sep-17 11:58N 34°33' E 135°16'0 0.1
2017-Sep-17 11:28N 34°33' E 135°16'0 0.0
2017-Sep-17 10:58N 34°33' E 135°16'0 0.0
2017-Sep-17 10:28N 34°33' E 135°16'  

Dump ship's entire track history